Time;durP1;ratioP1;P1;durP2;ratioP2;P2;SDS_P1;SDS_P2;PMS_P1;PMS_P2;Temp;Humidity;BMP_temperature;BMP_pressure;BME280_temperature;BME280_humidity;BME280_pressure;Samples;Min_cycle;Max_cycle;Signal;HPM_P1;HPM_P2
2023/01/16 00:01:20;;;;;;;;;;;6.70;96.60;;;;;;5035070;28;19942;-88
2023/01/16 00:03:46;;;;;;;;;;;6.70;96.50;;;;;;5034933;28;19944;-88
2023/01/16 00:06:11;;;;;;;;;;;6.60;96.30;;;;;;5035005;28;19948;-88
2023/01/16 00:08:37;;;;;;;;;;;6.60;96.60;;;;;;5034724;28;20368;-88
2023/01/16 00:11:02;;;;;;;;;;;6.60;96.60;;;;;;5033609;28;19950;-88
2023/01/16 00:13:28;;;;;;;;;;;6.60;96.50;;;;;;5034657;28;20074;-88
2023/01/16 00:15:53;;;;;;;;;;;6.60;96.60;;;;;;5034683;28;20029;-88
2023/01/16 00:18:19;;;;;;;;;;;6.70;96.60;;;;;;5034698;28;19980;-89
2023/01/16 00:20:46;;;;;;;;;;;6.60;96.50;;;;;;5034728;28;20545;-88
2023/01/16 00:23:11;;;;;;;;;;;6.70;96.70;;;;;;5034651;28;19937;-87
2023/01/16 00:25:41;;;;;;;;;;;6.70;96.60;;;;;;5034609;28;19995;-88
2023/01/16 00:28:07;;;;;;;;;;;6.70;96.60;;;;;;5034082;28;20386;-88
2023/01/16 00:30:33;;;;;;;;;;;6.70;96.50;;;;;;5034512;28;20089;-88
2023/01/16 00:32:58;;;;;;;;;;;6.60;96.40;;;;;;5034432;28;20424;-88
2023/01/16 00:35:26;;;;;;;;;;;6.70;96.60;;;;;;5034433;28;19945;-88
2023/01/16 00:37:51;;;;;;;;;;;6.70;96.50;;;;;;5034553;28;19967;-88
2023/01/16 00:40:17;;;;;;;;;;;6.70;96.50;;;;;;5034302;28;19945;-88
2023/01/16 00:42:42;;;;;;;;;;;6.60;96.40;;;;;;5034240;28;19940;-88
2023/01/16 00:45:08;;;;;;;;;;;6.70;96.50;;;;;;5016461;28;19946;-88
2023/01/16 00:47:34;;;;;;;;;;;6.70;96.50;;;;;;5016369;28;19945;-88
2023/01/16 00:49:59;;;;;;;;;;;6.60;96.60;;;;;;5033830;28;19973;-88
2023/01/16 00:52:25;;;;;;;;;;;6.60;96.60;;;;;;5016264;28;20060;-88
2023/01/16 00:54:50;;;;;;;;;;;6.70;96.70;;;;;;5033958;28;19945;-88
2023/01/16 00:57:16;;;;;;;;;;;6.70;96.50;;;;;;5033880;28;19958;-88
2023/01/16 00:59:41;;;;;;;;;;;6.70;96.50;;;;;;5033971;28;19983;-89
2023/01/16 01:02:07;;;;;;;;;;;6.60;96.40;;;;;;5033889;28;19942;-88
2023/01/16 01:04:33;;;;;;;;;;;6.70;96.60;;;;;;5034153;28;19988;-88
2023/01/16 01:06:58;;;;;;;;;;;6.70;96.50;;;;;;5033875;28;20337;-88
2023/01/16 01:09:24;;;;;;;;;;;6.70;96.50;;;;;;5016069;28;19942;-88
2023/01/16 01:11:49;;;;;;;;;;;6.70;96.50;;;;;;5033482;28;19944;-89
2023/01/16 01:14:15;;;;;;;;;;;6.60;96.40;;;;;;5073371;23;20035;-88
2023/01/16 01:16:40;;;;;;;;;;;6.70;96.40;;;;;;5073521;28;19947;-89
2023/01/16 01:19:06;;;;;;;;;;;6.60;96.30;;;;;;5073528;28;20407;-88
2023/01/16 01:21:32;;;;;;;;;;;6.60;96.40;;;;;;5073292;28;19944;-88
2023/01/16 01:23:57;;;;;;;;;;;6.70;96.50;;;;;;5073433;28;19945;-88
2023/01/16 01:26:23;;;;;;;;;;;6.90;96.40;;;;;;5073421;28;19939;-88
2023/01/16 01:28:48;;;;;;;;;;;6.90;96.40;;;;;;5073390;28;19938;-89
2023/01/16 01:31:14;;;;;;;;;;;6.90;96.40;;;;;;5073405;28;20008;-88
2023/01/16 01:33:39;;;;;;;;;;;6.90;96.20;;;;;;5073331;28;20474;-89
2023/01/16 01:36:06;;;;;;;;;;;6.80;96.00;;;;;;5073310;28;19941;-88
2023/01/16 01:38:31;;;;;;;;;;;6.80;96.00;;;;;;5073153;28;19960;-88
2023/01/16 01:40:57;;;;;;;;;;;6.80;95.90;;;;;;5073234;28;20014;-88
2023/01/16 01:43:38;;;;;;;;;;;6.70;95.80;;;;;;5073238;28;19973;-88
2023/01/16 01:46:04;;;;;;;;;;;6.60;95.90;;;;;;5073203;28;19949;-88
2023/01/16 01:48:32;;;;;;;;;;;6.60;96.00;;;;;;5073084;28;19937;-88
2023/01/16 01:51:13;;;;;;;;;;;6.50;96.10;;;;;;5072854;28;19943;-88
2023/01/16 01:53:38;;;;;;;;;;;6.60;96.10;;;;;;5072873;28;19999;-88
2023/01/16 01:56:11;;;;;;;;;;;6.50;96.20;;;;;;5072986;28;20050;-89
2023/01/16 01:58:37;;;;;;;;;;;6.50;96.20;;;;;;5072948;28;19961;-88
2023/01/16 02:01:03;;;;;;;;;;;6.50;96.20;;;;;;5073056;28;19938;-88
2023/01/16 02:03:37;;;;;;;;;;;6.50;96.20;;;;;;5072985;28;19970;-88
2023/01/16 02:06:06;;;;;;;;;;;6.40;96.20;;;;;;5072671;28;19984;-88
2023/01/16 02:08:32;;;;;;;;;;;6.40;96.20;;;;;;5072962;28;19939;-88
2023/01/16 02:11:01;;;;;;;;;;;6.40;96.20;;;;;;5072939;28;19946;-88
2023/01/16 02:13:26;;;;;;;;;;;6.50;96.20;;;;;;5072697;28;19984;-88
2023/01/16 02:21:46;;;;;;;;;;;6.50;96.10;;;;;;5072864;28;20022;-88
2023/01/16 02:24:11;;;;;;;;;;;6.40;96.10;;;;;;5072810;28;19935;-88
2023/01/16 02:26:46;;;;;;;;;;;6.40;96.10;;;;;;5054779;28;20054;-88
2023/01/16 02:29:14;;;;;;;;;;;6.40;96.10;;;;;;5072449;28;19949;-88
2023/01/16 02:31:45;;;;;;;;;;;6.40;96.20;;;;;;5073027;28;19939;-88
2023/01/16 02:34:11;;;;;;;;;;;6.50;96.20;;;;;;5074409;28;19942;-87
2023/01/16 02:36:55;;;;;;;;;;;6.50;96.20;;;;;;5076575;28;19937;-88
2023/01/16 02:39:21;;;;;;;;;;;6.50;96.20;;;;;;5076576;28;20047;-87
2023/01/16 02:41:49;;;;;;;;;;;6.50;96.20;;;;;;5076519;28;20460;-87
2023/01/16 02:44:20;;;;;;;;;;;6.50;96.10;;;;;;5076518;28;20203;-87
2023/01/16 02:46:53;;;;;;;;;;;6.60;96.10;;;;;;5076381;28;19949;-88
2023/01/16 02:49:21;;;;;;;;;;;6.60;96.20;;;;;;5076090;28;19948;-88
2023/01/16 02:51:55;;;;;;;;;;;6.60;96.10;;;;;;5076285;28;20428;-87
2023/01/16 02:54:28;;;;;;;;;;;6.70;96.00;;;;;;5076216;28;19988;-87
2023/01/16 02:56:53;;;;;;;;;;;6.80;96.00;;;;;;5076127;28;20029;-87
2023/01/16 02:59:19;;;;;;;;;;;6.80;95.90;;;;;;5076191;28;20037;-87
2023/01/16 03:01:49;;;;;;;;;;;6.90;96.00;;;;;;5076150;28;20383;-88
2023/01/16 03:04:33;;;;;;;;;;;6.90;95.90;;;;;;5076069;28;19973;-87
2023/01/16 03:07:05;;;;;;;;;;;7.10;95.90;;;;;;5076033;28;20003;-88
2023/01/16 03:09:36;;;;;;;;;;;7.30;95.80;;;;;;5076022;28;20024;-87
2023/01/16 03:12:05;;;;;;;;;;;7.50;95.40;;;;;;5076205;28;20341;-87
2023/01/16 03:14:44;;;;;;;;;;;7.60;94.50;;;;;;5075743;28;19973;-88
2023/01/16 03:17:16;;;;;;;;;;;7.50;94.00;;;;;;5075529;28;19961;-87
2023/01/16 03:20:00;;;;;;;;;;;7.30;93.90;;;;;;5075839;28;19941;-87
2023/01/16 03:22:41;;;;;;;;;;;7.20;93.80;;;;;;5075998;28;20028;-87
2023/01/16 03:25:13;;;;;;;;;;;6.90;93.90;;;;;;5057799;28;20308;-88
2023/01/16 03:27:42;;;;;;;;;;;6.90;94.20;;;;;;5075734;28;19960;-87
2023/01/16 03:30:14;;;;;;;;;;;6.90;94.40;;;;;;5075637;28;19939;-88
2023/01/16 03:32:44;;;;;;;;;;;7.00;94.60;;;;;;5075559;28;19938;-88
2023/01/16 03:35:13;;;;;;;;;;;6.90;94.80;;;;;;5075606;28;19935;-87
2023/01/16 03:37:54;;;;;;;;;;;6.90;95.20;;;;;;5075474;28;20065;-87
2023/01/16 03:40:26;;;;;;;;;;;6.90;95.20;;;;;;5075414;28;20376;-87
2023/01/16 03:43:03;;;;;;;;;;;6.90;94.90;;;;;;5075402;28;19938;-88
2023/01/16 03:45:32;;;;;;;;;;;6.90;94.90;;;;;;5075023;28;20321;-88
2023/01/16 03:48:06;;;;;;;;;;;6.90;94.90;;;;;;5075173;28;20056;-88
2023/01/16 03:50:32;;;;;;;;;;;6.90;94.90;;;;;;5075283;28;19976;-88
2023/01/16 03:53:01;;;;;;;;;;;6.80;95.00;;;;;;5057183;28;19965;-87
2023/01/16 03:55:30;;;;;;;;;;;6.80;95.00;;;;;;5074414;28;19942;-87
2023/01/16 03:58:07;;;;;;;;;;;6.80;95.10;;;;;;5057106;28;19967;-88
2023/01/16 04:00:44;;;;;;;;;;;6.80;95.30;;;;;;5074921;28;19987;-88
2023/01/16 04:03:13;;;;;;;;;;;6.80;95.20;;;;;;5074918;28;19947;-87
2023/01/16 04:05:47;;;;;;;;;;;6.90;95.30;;;;;;5074862;28;19994;-87
2023/01/16 04:08:14;;;;;;;;;;;6.90;95.10;;;;;;5074748;28;19938;-87
2023/01/16 04:10:42;;;;;;;;;;;7.00;95.00;;;;;;5074803;28;19944;-88
2023/01/16 04:13:09;;;;;;;;;;;7.00;94.90;;;;;;5074598;28;19968;-87
2023/01/16 04:15:37;;;;;;;;;;;7.10;94.80;;;;;;5074230;28;19941;-87
2023/01/16 04:18:02;;;;;;;;;;;6.90;94.90;;;;;;5074501;28;19992;-88
2023/01/16 04:20:29;;;;;;;;;;;6.90;95.20;;;;;;5074524;28;20317;-87
2023/01/16 04:22:54;;;;;;;;;;;6.90;95.30;;;;;;5074499;28;19946;-87
2023/01/16 04:25:20;;;;;;;;;;;7.10;95.30;;;;;;5074561;28;20029;-88
2023/01/16 04:27:46;;;;;;;;;;;7.10;95.20;;;;;;5065548;28;19960;-87
2023/01/16 04:30:12;;;;;;;;;;;7.30;95.20;;;;;;5054456;28;19939;-88
2023/01/16 04:32:37;;;;;;;;;;;7.40;95.10;;;;;;5054436;28;19944;-88
2023/01/16 04:35:03;;;;;;;;;;;7.60;94.90;;;;;;5054375;28;19970;-88
2023/01/16 04:37:29;;;;;;;;;;;7.70;94.50;;;;;;5054531;28;20051;-88
2023/01/16 04:39:54;;;;;;;;;;;7.60;94.30;;;;;;5054529;28;19970;-87
2023/01/16 04:42:20;;;;;;;;;;;7.60;93.70;;;;;;5054247;28;20020;-87
2023/01/16 04:44:45;;;;;;;;;;;7.50;93.10;;;;;;5054237;28;19974;-87
2023/01/16 04:47:11;;;;;;;;;;;7.40;93.20;;;;;;5052637;28;19944;-87
2023/01/16 04:49:36;;;;;;;;;;;7.20;93.40;;;;;;5074066;28;20032;-87
2023/01/16 04:52:02;;;;;;;;;;;7.20;93.60;;;;;;5073995;28;20046;-87
2023/01/16 04:54:28;;;;;;;;;;;7.10;93.80;;;;;;5073940;28;19941;-88
2023/01/16 04:56:53;;;;;;;;;;;7.10;93.90;;;;;;5073348;28;20383;-88
2023/01/16 04:59:19;;;;;;;;;;;7.00;94.10;;;;;;5073864;28;20392;-88
2023/01/16 05:01:45;;;;;;;;;;;7.10;94.30;;;;;;5054504;28;19947;-88
2023/01/16 05:04:11;;;;;;;;;;;7.30;94.40;;;;;;5053867;28;19952;-87
2023/01/16 05:06:37;;;;;;;;;;;7.40;94.20;;;;;;5053766;28;19941;-87
2023/01/16 05:09:03;;;;;;;;;;;7.30;94.20;;;;;;5053750;28;20079;-87
2023/01/16 05:11:29;;;;;;;;;;;7.20;94.30;;;;;;5053968;28;20035;-87
2023/01/16 05:13:54;;;;;;;;;;;7.20;94.40;;;;;;5053527;28;20154;-88
2023/01/16 05:16:20;;;;;;;;;;;7.20;94.20;;;;;;5065010;28;20415;-87
2023/01/16 05:18:45;;;;;;;;;;;7.10;94.50;;;;;;5073257;28;19973;-88
2023/01/16 05:21:11;;;;;;;;;;;7.00;94.40;;;;;;5073565;28;19941;-87
2023/01/16 05:23:37;;;;;;;;;;;7.00;94.50;;;;;;5073494;28;19949;-88
2023/01/16 05:26:03;;;;;;;;;;;7.20;94.60;;;;;;5073402;28;20395;-87
2023/01/16 05:28:29;;;;;;;;;;;7.20;94.30;;;;;;5073436;28;20087;-88
2023/01/16 05:30:54;;;;;;;;;;;7.20;94.20;;;;;;5073420;28;19962;-87
2023/01/16 05:33:20;;;;;;;;;;;7.20;94.10;;;;;;5073191;28;19946;-87
2023/01/16 05:35:46;;;;;;;;;;;7.20;94.00;;;;;;5073282;28;19942;-87
2023/01/16 05:38:12;;;;;;;;;;;7.10;94.10;;;;;;5073488;28;20407;-87
2023/01/16 05:40:37;;;;;;;;;;;7.10;94.20;;;;;;5073236;28;19938;-87
2023/01/16 05:43:03;;;;;;;;;;;7.00;94.40;;;;;;5073222;28;19992;-88
2023/01/16 05:45:29;;;;;;;;;;;7.00;94.50;;;;;;5073059;28;19945;-87
2023/01/16 05:47:55;;;;;;;;;;;7.00;94.50;;;;;;5073172;28;20310;-87
2023/01/16 05:50:20;;;;;;;;;;;6.90;94.60;;;;;;5073121;28;19966;-87
2023/01/16 05:52:46;;;;;;;;;;;6.90;94.70;;;;;;5073033;28;20007;-88
2023/01/16 05:55:11;;;;;;;;;;;6.90;94.70;;;;;;5054940;28;20285;-87
2023/01/16 05:57:37;;;;;;;;;;;6.90;94.80;;;;;;5072943;28;20099;-87
2023/01/16 06:00:03;;;;;;;;;;;6.90;94.90;;;;;;5073033;28;19946;-88
2023/01/16 06:02:29;;;;;;;;;;;6.90;94.90;;;;;;5072931;28;19945;-87
2023/01/16 06:04:55;;;;;;;;;;;6.90;95.00;;;;;;5072342;28;19965;-87
2023/01/16 06:07:21;;;;;;;;;;;6.90;95.10;;;;;;5069795;28;19947;-87
2023/01/16 06:09:46;;;;;;;;;;;6.80;95.20;;;;;;5076020;28;19996;-88
2023/01/16 06:12:15;;;;;;;;;;;6.90;95.10;;;;;;5067996;28;19949;-87
2023/01/16 06:14:41;;;;;;;;;;;6.90;95.00;;;;;;5076727;28;20000;-87
2023/01/16 06:17:07;;;;;;;;;;;6.80;95.00;;;;;;5076742;28;19941;-87
2023/01/16 06:19:32;;;;;;;;;;;6.80;95.30;;;;;;5076761;28;19966;-88
2023/01/16 06:21:58;;;;;;;;;;;6.80;95.40;;;;;;5076099;28;20027;-88
2023/01/16 06:24:23;;;;;;;;;;;6.80;95.40;;;;;;5073552;28;19945;-88
2023/01/16 06:26:49;;;;;;;;;;;6.90;95.50;;;;;;5075395;28;19963;-88
2023/01/16 06:29:14;;;;;;;;;;;6.90;95.50;;;;;;5076555;28;19944;-87
2023/01/16 06:31:40;;;;;;;;;;;6.90;95.40;;;;;;5074164;28;19941;-87
2023/01/16 06:34:05;;;;;;;;;;;6.90;95.40;;;;;;5076217;28;19945;-87
2023/01/16 06:36:31;;;;;;;;;;;6.90;95.40;;;;;;5072931;28;20347;-87
2023/01/16 06:38:57;;;;;;;;;;;6.90;95.40;;;;;;5074207;28;19957;-88
2023/01/16 06:41:22;;;;;;;;;;;6.80;95.40;;;;;;5074526;28;19951;-87
2023/01/16 06:43:48;;;;;;;;;;;6.80;95.60;;;;;;5074165;28;19950;-87
2023/01/16 06:46:13;;;;;;;;;;;6.80;95.70;;;;;;5070518;28;19943;-87
2023/01/16 06:48:41;;;;;;;;;;;6.70;95.70;;;;;;5065491;28;19946;-87
2023/01/16 06:51:07;;;;;;;;;;;6.70;95.80;;;;;;5069196;28;19939;-88
2023/01/16 06:53:32;;;;;;;;;;;6.70;95.90;;;;;;5075505;28;19971;-87
2023/01/16 06:55:58;;;;;;;;;;;6.70;95.90;;;;;;5072854;28;19950;-88
2023/01/16 06:58:23;;;;;;;;;;;6.70;96.20;;;;;;5073847;28;19956;-88
2023/01/16 07:00:52;;;;;;;;;;;6.70;96.20;;;;;;5070930;28;19974;-88
2023/01/16 07:03:18;;;;;;;;;;;6.70;96.10;;;;;;5069299;28;19961;-88
2023/01/16 07:05:45;;;;;;;;;;;6.60;96.20;;;;;;5068965;28;20443;-87
2023/01/16 07:08:10;;;;;;;;;;;6.60;96.50;;;;;;5071246;28;19949;-88
2023/01/16 07:10:36;;;;;;;;;;;6.70;96.40;;;;;;5074124;28;20051;-87
2023/01/16 07:13:01;;;;;;;;;;;6.70;96.30;;;;;;5073258;28;19973;-87
2023/01/16 07:23:43;;;;;;;;;;;6.60;96.30;;;;;;5072527;28;19944;-88
2023/01/16 07:26:10;;;;;;;;;;;6.60;96.30;;;;;;5069551;28;21360;-88
2023/01/16 07:28:35;;;;;;;;;;;6.70;96.30;;;;;;5073873;28;19943;-88
2023/01/16 07:31:03;;;;;;;;;;;6.70;96.30;;;;;;5055774;28;20447;-89
2023/01/16 07:33:29;;;;;;;;;;;6.70;96.30;;;;;;5069947;28;19958;-89
2023/01/16 07:35:54;;;;;;;;;;;6.80;96.40;;;;;;5070078;28;19943;-88
2023/01/16 07:38:20;;;;;;;;;;;6.80;96.30;;;;;;5068005;28;19964;-88
2023/01/16 07:40:45;;;;;;;;;;;6.90;96.20;;;;;;5069489;28;20323;-88
2023/01/16 07:43:11;;;;;;;;;;;6.90;96.20;;;;;;5070413;28;20041;-88
2023/01/16 07:45:37;;;;;;;;;;;7.00;96.10;;;;;;5065952;28;20373;-88
2023/01/16 07:48:02;;;;;;;;;;;6.90;96.00;;;;;;5071847;28;19949;-88
2023/01/16 07:50:28;;;;;;;;;;;6.90;95.80;;;;;;5067697;28;19952;-88
2023/01/16 07:52:54;;;;;;;;;;;6.90;95.90;;;;;;5069314;28;19989;-88
2023/01/16 07:55:19;;;;;;;;;;;7.00;95.90;;;;;;5068065;28;19978;-88
2023/01/16 07:57:45;;;;;;;;;;;6.90;96.00;;;;;;5070879;28;19968;-88
2023/01/16 08:00:11;;;;;;;;;;;7.00;95.90;;;;;;5068464;28;19948;-88
2023/01/16 08:02:37;;;;;;;;;;;7.00;95.90;;;;;;5072901;28;19957;-88
2023/01/16 08:05:03;;;;;;;;;;;7.00;95.80;;;;;;5072667;28;20292;-88
2023/01/16 08:07:28;;;;;;;;;;;7.00;95.70;;;;;;5046837;28;19951;-87
2023/01/16 08:09:54;;;;;;;;;;;7.00;95.60;;;;;;5070347;28;19968;-88
2023/01/16 08:12:19;;;;;;;;;;;7.00;95.70;;;;;;5069178;28;19946;-88
2023/01/16 08:14:45;;;;;;;;;;;7.10;95.70;;;;;;5070093;28;19947;-88
2023/01/16 08:17:10;;;;;;;;;;;7.10;95.70;;;;;;5067069;28;19956;-87
2023/01/16 08:19:36;;;;;;;;;;;7.10;95.60;;;;;;5072435;28;19959;-88
2023/01/16 08:22:02;;;;;;;;;;;7.10;95.80;;;;;;5050692;28;19951;-88
2023/01/16 08:24:28;;;;;;;;;;;7.10;95.90;;;;;;5067475;28;19940;-88
2023/01/16 08:26:53;;;;;;;;;;;7.10;95.90;;;;;;5067800;28;19945;-88
2023/01/16 08:29:19;;;;;;;;;;;7.10;95.90;;;;;;5066304;28;20379;-88
2023/01/16 08:31:45;;;;;;;;;;;7.30;96.00;;;;;;5065034;28;20367;-88
2023/01/16 08:34:10;;;;;;;;;;;7.40;95.80;;;;;;5062480;28;19948;-88
2023/01/16 08:36:36;;;;;;;;;;;7.40;95.50;;;;;;5067525;28;20340;-88
2023/01/16 08:39:01;;;;;;;;;;;7.50;95.30;;;;;;5071095;28;19962;-88
2023/01/16 08:52:30;;;;;;;;;;;8.10;94.70;;;;;;5071547;28;20457;-88
2023/01/16 08:54:58;;;;;;;;;;;8.00;93.90;;;;;;5067069;28;20396;-88
2023/01/16 08:57:24;;;;;;;;;;;8.00;93.80;;;;;;5061353;28;19968;-89
2023/01/16 08:59:49;;;;;;;;;;;8.00;93.40;;;;;;5067159;28;20398;-88
2023/01/16 09:02:15;;;;;;;;;;;8.10;93.30;;;;;;5063851;28;19999;-88
2023/01/16 09:04:41;;;;;;;;;;;8.10;93.30;;;;;;5069381;28;19992;-88
2023/01/16 09:07:06;;;;;;;;;;;8.10;93.30;;;;;;5069613;28;20643;-88
2023/01/16 09:09:32;;;;;;;;;;;8.20;92.90;;;;;;5067189;28;19942;-88
2023/01/16 09:14:40;;;;;;;;;;;8.30;92.70;;;;;;5097530;22;20452;-89
2023/01/16 09:17:06;;;;;;;;;;;8.50;92.30;;;;;;5088291;28;20170;-89
2023/01/16 09:19:32;;;;;;;;;;;8.60;91.90;;;;;;5088734;28;19949;-89
2023/01/16 09:22:00;;;;;;;;;;;8.70;92.00;;;;;;5092342;28;20591;-88
2023/01/16 09:24:26;;;;;;;;;;;8.90;91.80;;;;;;5082081;28;19961;-89
2023/01/16 09:26:51;;;;;;;;;;;9.10;91.90;;;;;;5084226;28;19943;-89
2023/01/16 09:29:17;;;;;;;;;;;9.50;91.50;;;;;;5087349;28;20044;-89
2023/01/16 09:31:42;;;;;;;;;;;9.70;90.30;;;;;;5092499;28;19943;-89
2023/01/16 09:34:08;;;;;;;;;;;9.80;88.90;;;;;;5089605;28;19948;-88
2023/01/16 09:36:34;;;;;;;;;;;9.80;87.40;;;;;;5091522;28;20549;-89
2023/01/16 09:38:59;;;;;;;;;;;9.60;86.30;;;;;;5088772;28;20080;-89
2023/01/16 09:44:11;;;;;;;;;;;9.40;87.20;;;;;;5090144;28;19965;-89
2023/01/16 09:46:46;;;;;;;;;;;9.30;86.70;;;;;;5091683;28;20420;-88
2023/01/16 09:49:23;;;;;;;;;;;9.30;87.10;;;;;;5085041;28;19947;-88
2023/01/16 10:00:11;;;;;;;;;;;9.80;86.60;;;;;;5058468;28;20011;-89
2023/01/16 10:02:36;;;;;;;;;;;9.80;85.20;;;;;;5037857;28;19944;-89
2023/01/16 10:05:04;;;;;;;;;;;9.80;86.00;;;;;;5062550;28;19940;-88
2023/01/16 10:07:38;;;;;;;;;;;9.80;85.70;;;;;;5045992;28;19955;-88
2023/01/16 10:10:27;;;;;;;;;;;9.90;85.30;;;;;;5065026;28;19949;-89
2023/01/16 10:12:56;;;;;;;;;;;9.80;85.40;;;;;;5066234;28;20207;-88
2023/01/16 10:15:32;;;;;;;;;;;9.80;85.20;;;;;;5061271;28;20096;-89
2023/01/16 10:18:16;;;;;;;;;;;9.90;85.30;;;;;;5058755;28;19970;-89
2023/01/16 10:20:42;;;;;;;;;;;9.90;84.60;;;;;;5066103;28;19954;-89
2023/01/16 10:23:07;;;;;;;;;;;10.10;84.90;;;;;;5061662;28;19941;-89
2023/01/16 10:25:44;;;;;;;;;;;10.60;84.40;;;;;;5047159;28;19946;-89
2023/01/16 10:28:16;;;;;;;;;;;11.00;83.90;;;;;;5036437;28;19959;-89
2023/01/16 10:30:54;;;;;;;;;;;11.10;82.90;;;;;;5064524;28;19944;-89
2023/01/16 10:33:25;;;;;;;;;;;11.30;81.90;;;;;;5057183;28;20047;-89
2023/01/16 10:35:52;;;;;;;;;;;11.20;80.10;;;;;;5065312;28;19945;-88
2023/01/16 10:38:34;;;;;;;;;;;10.80;80.60;;;;;;5046555;28;19965;-88
2023/01/16 10:41:00;;;;;;;;;;;10.70;80.20;;;;;;5061793;28;19955;-89
2023/01/16 10:51:47;;;;;;;;;;;10.70;80.80;;;;;;5058421;28;19952;-89
2023/01/16 10:54:12;;;;;;;;;;;10.70;79.90;;;;;;5045144;28;19942;-89
2023/01/16 10:56:41;;;;;;;;;;;10.60;78.90;;;;;;5067911;28;20043;-89
2023/01/16 10:59:08;;;;;;;;;;;10.40;78.90;;;;;;5068721;28;19946;-89
2023/01/16 11:01:34;;;;;;;;;;;10.40;79.40;;;;;;5061200;28;20021;-89
2023/01/16 11:04:00;;;;;;;;;;;10.40;79.80;;;;;;5055091;28;20032;-89
2023/01/16 11:06:29;;;;;;;;;;;10.30;80.20;;;;;;5061071;28;19946;-88
2023/01/16 11:09:00;;;;;;;;;;;10.10;79.40;;;;;;5056797;28;19955;-88
2023/01/16 11:19:57;;;;;;;;;;;9.90;81.70;;;;;;5060881;28;19983;-88
2023/01/16 11:22:25;;;;;;;;;;;9.90;81.30;;;;;;5059836;28;20048;-89
2023/01/16 11:24:53;;;;;;;;;;;9.90;81.60;;;;;;5037745;28;20102;-89
2023/01/16 11:27:22;;;;;;;;;;;9.90;81.60;;;;;;5055621;28;20028;-88
2023/01/16 11:29:51;;;;;;;;;;;9.90;81.30;;;;;;5055887;28;20080;-88
2023/01/16 11:32:24;;;;;;;;;;;9.90;81.10;;;;;;5068122;28;19948;-88
2023/01/16 11:34:52;;;;;;;;;;;9.80;80.80;;;;;;5056993;28;20322;-88
2023/01/16 11:37:17;;;;;;;;;;;9.70;81.10;;;;;;5055329;28;19949;-88
2023/01/16 11:39:47;;;;;;;;;;;9.60;81.60;;;;;;5055512;28;20440;-88
2023/01/16 11:47:43;;;;;;;;;;;9.50;81.10;;;;;;5075380;28;19944;-89
2023/01/16 11:50:27;;;;;;;;;;;9.50;81.40;;;;;;5075306;28;19963;-88
2023/01/16 11:52:53;;;;;;;;;;;9.40;82.00;;;;;;5056900;28;20003;-89
2023/01/16 11:55:19;;;;;;;;;;;9.40;82.00;;;;;;5074746;28;20361;-89
2023/01/16 11:57:57;;;;;;;;;;;9.40;81.80;;;;;;5074857;28;19972;-89
2023/01/16 12:00:34;;;;;;;;;;;9.30;81.40;;;;;;5074747;28;19998;-88
2023/01/16 12:03:13;;;;;;;;;;;9.30;81.80;;;;;;5074787;28;19945;-88
2023/01/16 12:05:54;;;;;;;;;;;9.20;81.80;;;;;;5074084;28;19947;-88
2023/01/16 12:08:38;;;;;;;;;;;9.10;81.70;;;;;;5061562;28;19956;-88
2023/01/16 12:11:21;;;;;;;;;;;9.10;81.90;;;;;;5063320;28;19943;-88
2023/01/16 12:16:56;;;;;;;;;;;9.00;82.50;;;;;;5069152;28;19955;-88
2023/01/16 12:19:30;;;;;;;;;;;9.00;82.70;;;;;;5057104;28;19964;-88
2023/01/16 12:22:14;;;;;;;;;;;9.00;82.30;;;;;;5060843;28;19941;-89
2023/01/16 12:24:39;;;;;;;;;;;9.20;82.30;;;;;;5062879;28;20001;-89
2023/01/16 12:27:13;;;;;;;;;;;9.40;81.00;;;;;;5066498;28;20386;-88
2023/01/16 12:29:49;;;;;;;;;;;9.40;81.70;;;;;;5065246;28;19949;-88
2023/01/16 12:32:15;;;;;;;;;;;9.30;81.90;;;;;;5041209;28;19953;-88
2023/01/16 12:34:48;;;;;;;;;;;9.20;81.80;;;;;;5060760;28;20010;-88
2023/01/16 12:37:23;;;;;;;;;;;9.20;82.10;;;;;;5066237;28;19947;-88
2023/01/16 12:39:58;;;;;;;;;;;9.10;82.50;;;;;;5073413;28;19942;-88
2023/01/16 12:45:29;;;;;;;;;;;8.90;82.70;;;;;;5066203;28;20077;-89
2023/01/16 12:48:13;;;;;;;;;;;8.80;83.00;;;;;;5060426;28;19971;-89
2023/01/16 12:50:57;;;;;;;;;;;8.80;83.40;;;;;;5070620;28;20004;-88
2023/01/16 12:53:37;;;;;;;;;;;8.80;83.30;;;;;;5061397;28;20490;-88
2023/01/16 12:56:21;;;;;;;;;;;8.80;83.50;;;;;;5052512;28;19997;-88
2023/01/16 12:58:53;;;;;;;;;;;8.80;82.40;;;;;;5059760;28;19993;-89
2023/01/16 13:01:28;;;;;;;;;;;8.80;82.50;;;;;;5066099;28;19939;-89
2023/01/16 13:03:59;;;;;;;;;;;8.80;82.80;;;;;;5063559;28;19968;-88
2023/01/16 13:06:54;;;;;;;;;;;8.80;83.40;;;;;;5060799;28;19945;-88
2023/01/16 13:09:36;;;;;;;;;;;8.70;83.20;;;;;;5033698;28;19963;-88
2023/01/16 13:14:58;;;;;;;;;;;8.50;84.90;;;;;;5060069;28;19960;-88
2023/01/16 13:17:25;;;;;;;;;;;8.50;84.50;;;;;;5068202;28;20028;-88
2023/01/16 13:19:51;;;;;;;;;;;8.40;84.70;;;;;;5057233;28;19954;-88
2023/01/16 13:22:24;;;;;;;;;;;8.40;85.10;;;;;;5064088;28;19986;-88
2023/01/16 13:24:53;;;;;;;;;;;8.50;85.40;;;;;;5072782;28;20343;-89
2023/01/16 13:27:22;;;;;;;;;;;8.60;85.10;;;;;;5071471;28;20402;-89
2023/01/16 13:29:50;;;;;;;;;;;8.60;85.20;;;;;;5061360;28;19954;-89
2023/01/16 13:32:28;;;;;;;;;;;8.50;85.10;;;;;;5063945;28;19946;-88
2023/01/16 13:34:57;;;;;;;;;;;8.50;85.50;;;;;;5066391;28;20310;-87
2023/01/16 13:37:36;;;;;;;;;;;8.60;85.60;;;;;;5055443;28;19943;-88
2023/01/16 13:40:09;;;;;;;;;;;8.50;85.40;;;;;;5065216;28;19941;-88
2023/01/16 13:42:37;;;;;;;;;;;8.40;86.00;;;;;;5055817;28;20323;-88
2023/01/16 13:47:51;;;;;;;;;;;8.30;86.20;;;;;;5057723;28;20029;-89
2023/01/16 13:50:20;;;;;;;;;;;8.20;86.40;;;;;;5063286;28;19945;-89
2023/01/16 13:52:46;;;;;;;;;;;8.30;86.20;;;;;;5071867;28;19959;-89
2023/01/16 13:55:24;;;;;;;;;;;8.30;86.10;;;;;;5047302;28;19947;-89
2023/01/16 13:57:49;;;;;;;;;;;8.20;85.90;;;;;;5060527;28;20062;-89
2023/01/16 14:00:19;;;;;;;;;;;8.20;86.20;;;;;;5059732;28;20039;-89
2023/01/16 14:02:45;;;;;;;;;;;8.20;86.20;;;;;;5065728;28;19946;-89
2023/01/16 14:05:20;;;;;;;;;;;8.30;86.00;;;;;;5063026;28;19950;-89
2023/01/16 14:10:40;;;;;;;;;;;8.30;85.10;;;;;;5063044;28;20045;-89
2023/01/16 14:13:20;;;;;;;;;;;8.20;85.20;;;;;;5060875;28;19972;-89
2023/01/16 14:18:37;;;;;;;;;;;8.00;86.10;;;;;;5063680;28;19963;-89
2023/01/16 14:21:04;;;;;;;;;;;8.00;86.30;;;;;;5064658;28;20025;-89
2023/01/16 14:26:37;;;;;;;;;;;7.90;86.90;;;;;;5061157;28;19944;-89
2023/01/16 14:29:25;;;;;;;;;;;7.90;87.30;;;;;;5062032;28;19939;-88
2023/01/16 14:32:01;;;;;;;;;;;7.90;87.10;;;;;;5064693;28;19943;-88
2023/01/16 14:34:28;;;;;;;;;;;7.90;87.40;;;;;;5053170;28;19946;-88
2023/01/16 14:36:59;;;;;;;;;;;7.90;87.50;;;;;;5069371;28;20434;-88
2023/01/16 14:39:34;;;;;;;;;;;7.80;88.00;;;;;;5069933;28;19952;-88
2023/01/16 14:56:18;;;;;;;;;;;7.90;88.90;;;;;;5064351;28;19948;-89
2023/01/16 14:58:45;;;;;;;;;;;7.90;89.10;;;;;;5072753;28;20106;-89
2023/01/16 15:04:22;;;;;;;;;;;8.10;88.20;;;;;;4993808;28;19946;-89
2023/01/16 15:06:52;;;;;;;;;;;7.90;88.60;;;;;;5058807;28;20004;-89
2023/01/16 15:09:18;;;;;;;;;;;7.90;88.50;;;;;;5054052;28;19949;-89
2023/01/16 15:11:51;;;;;;;;;;;7.90;88.60;;;;;;5071741;28;20310;-89
2023/01/16 15:14:27;;;;;;;;;;;7.80;88.80;;;;;;5061095;28;19970;-89
2023/01/16 15:22:42;;;;;;;;;;;7.50;89.60;;;;;;5072462;28;19997;-89
2023/01/16 15:25:14;;;;;;;;;;;7.50;90.20;;;;;;5062874;28;19946;-89
2023/01/16 15:27:41;;;;;;;;;;;7.50;90.40;;;;;;5063699;28;19945;-89
2023/01/16 15:30:17;;;;;;;;;;;7.60;90.70;;;;;;5065277;28;19951;-88
2023/01/16 15:32:55;;;;;;;;;;;7.70;90.30;;;;;;5065911;28;20011;-88
2023/01/16 15:35:22;;;;;;;;;;;7.60;90.20;;;;;;5056533;28;19952;-88
2023/01/16 15:37:52;;;;;;;;;;;7.60;90.40;;;;;;5047737;28;20317;-89
2023/01/16 15:40:20;;;;;;;;;;;7.60;90.50;;;;;;5065398;28;19949;-89
2023/01/16 15:48:35;;;;;;;;;;;7.40;91.30;;;;;;5070496;28;19950;-88
2023/01/16 15:51:04;;;;;;;;;;;7.50;91.50;;;;;;5063131;28;19942;-88
2023/01/16 15:53:41;;;;;;;;;;;7.70;91.20;;;;;;5057737;28;19977;-89
2023/01/16 15:56:15;;;;;;;;;;;7.90;90.40;;;;;;5066190;28;19943;-89
2023/01/16 15:58:42;;;;;;;;;;;7.90;89.80;;;;;;5062288;28;19958;-89
2023/01/16 16:01:08;;;;;;;;;;;7.90;89.20;;;;;;5064763;28;19952;-88
2023/01/16 16:03:36;;;;;;;;;;;7.70;89.20;;;;;;5066940;28;19948;-89
2023/01/16 16:06:03;;;;;;;;;;;7.70;89.60;;;;;;5060909;28;20342;-89
2023/01/16 16:08:31;;;;;;;;;;;7.70;89.70;;;;;;5049002;28;20332;-88
2023/01/16 16:13:42;;;;;;;;;;;7.60;89.90;;;;;;5058574;28;19990;-89
2023/01/16 16:19:05;;;;;;;;;;;7.50;90.40;;;;;;5058345;28;20335;-89
2023/01/16 16:24:35;;;;;;;;;;;7.90;90.20;;;;;;5061539;28;19951;-88
2023/01/16 16:27:12;;;;;;;;;;;8.10;89.50;;;;;;5050647;28;19966;-88
2023/01/16 16:29:38;;;;;;;;;;;7.90;89.30;;;;;;5062889;28;19952;-87
2023/01/16 16:32:04;;;;;;;;;;;7.90;88.80;;;;;;5067632;28;19946;-89
2023/01/16 16:34:30;;;;;;;;;;;7.70;89.00;;;;;;5054053;28;19945;-88
2023/01/16 16:36:57;;;;;;;;;;;7.60;89.30;;;;;;5043774;28;19952;-89